Time,TemperatureF,DewpointF,PressureIn,WindDirection,WindDirectionDegrees,WindSpeedMPH,WindSpeedGustMPH,Humidity,HourlyPrecipIn,Conditions,Clouds,dailyrainin,SoftwareType,DateUTC
2013-03-09 00:01:00,30.0,27.0,-100.00,NNE,16,0.0,2.0,90,-99.99,,,-99.99,,2013-03-09 08:01:00,
2013-03-09 00:11:00,30.0,27.0,-100.00,NNE,16,0.0,2.0,90,-99.99,,,-99.99,,2013-03-09 08:11:00,
2013-03-09 00:21:00,29.0,26.0,-100.00,North,357,0.0,2.0,90,-99.99,,,-99.99,,2013-03-09 08:21:00,
2013-03-09 00:31:00,29.0,27.0,-100.00,North,-999,0.0,0.0,91,-99.99,,,-99.99,,2013-03-09 08:31:00,
2013-03-09 00:41:00,29.0,27.0,-100.00,NW,311,0.0,2.0,91,-99.99,,,-99.99,,2013-03-09 08:41:00,
2013-03-09 00:52:00,28.0,26.0,-100.00,NW,313,1.0,3.0,91,-99.99,,,-99.99,,2013-03-09 08:52:00,
2013-03-09 01:01:00,28.0,26.0,-100.00,NE,35,1.0,3.0,91,-99.99,,,-99.99,,2013-03-09 09:01:00,
2013-03-09 01:11:00,28.0,26.0,-100.00,NE,35,1.0,3.0,91,-99.99,,,-99.99,,2013-03-09 09:11:00,
2013-03-09 01:21:00,28.0,25.0,-100.00,ENE,68,0.0,2.0,90,-99.99,,,-99.99,,2013-03-09 09:21:00,
2013-03-09 01:31:00,28.0,25.0,-100.00,ENE,68,0.0,2.0,90,-99.99,,,-99.99,,2013-03-09 09:31:00,
2013-03-09 01:41:00,28.0,25.0,-100.00,North,0,1.0,3.0,90,-99.99,,,-99.99,,2013-03-09 09:41:00,
2013-03-09 01:52:00,28.0,26.0,-100.00,West,267,1.0,3.0,91,-99.99,,,-99.99,,2013-03-09 09:52:00,
2013-03-09 02:01:00,28.0,26.0,-100.00,West,267,1.0,3.0,91,-99.99,,,-99.99,,2013-03-09 10:01:00,
2013-03-09 02:11:00,28.0,26.0,-100.00,NNE,30,3.0,5.0,91,-99.99,,,-99.99,,2013-03-09 10:11:00,
2013-03-09 02:21:00,29.0,26.0,-100.00,ENE,69,2.0,5.0,91,-99.99,,,-99.99,,2013-03-09 10:21:00,
2013-03-09 02:31:00,28.0,26.0,-100.00,NNE,31,1.0,3.0,91,-99.99,,,-99.99,,2013-03-09 10:31:00,
2013-03-09 02:41:00,28.0,25.0,-100.00,NNW,347,0.0,2.0,90,-99.99,,,-99.99,,2013-03-09 10:41:00,
2013-03-09 02:51:00,27.0,25.0,-100.00,North,352,1.0,3.0,91,-99.99,,,-99.99,,2013-03-09 10:51:00,
2013-03-09 03:01:00,27.0,25.0,-100.00,ENE,64,2.0,4.0,92,-99.99,,,-99.99,,2013-03-09 11:01:00,
2013-03-09 03:11:00,27.0,25.0,-100.00,ENE,64,2.0,4.0,92,-99.99,,,-99.99,,2013-03-09 11:11:00,
2013-03-09 03:21:00,27.0,25.0,-100.00,North,7,1.0,3.0,91,-99.99,,,-99.99,,2013-03-09 11:21:00,
2013-03-09 03:32:00,27.0,24.0,-100.00,NE,49,2.0,3.0,89,-99.99,,,-99.99,,2013-03-09 11:32:00,
2013-03-09 03:41:00,27.0,24.0,-100.00,NE,49,2.0,3.0,89,-99.99,,,-99.99,,2013-03-09 11:41:00,
2013-03-09 03:52:00,27.0,24.0,-100.00,ENE,66,1.0,3.0,88,-99.99,,,-99.99,,2013-03-09 11:52:00,
2013-03-09 04:01:00,27.0,24.0,-100.00,NE,51,0.0,2.0,88,-99.99,,,-99.99,,2013-03-09 12:01:00,
2013-03-09 04:11:00,27.0,24.0,-100.00,NE,51,0.0,2.0,88,-99.99,,,-99.99,,2013-03-09 12:11:00,
2013-03-09 04:21:00,26.0,23.0,-100.00,NNE,16,2.0,4.0,88,-99.99,,,-99.99,,2013-03-09 12:21:00,
2013-03-09 04:31:00,26.0,23.0,-100.00,NNE,16,2.0,4.0,88,-99.99,,,-99.99,,2013-03-09 12:31:00,
2013-03-09 04:42:00,26.0,23.0,-100.00,NNE,21,1.0,4.0,88,-99.99,,,-99.99,,2013-03-09 12:42:00,
2013-03-09 04:52:00,26.0,23.0,-100.00,NNE,27,1.0,3.0,89,-99.99,,,-99.99,,2013-03-09 12:52:00,
2013-03-09 05:02:00,26.0,23.0,-100.00,NNE,27,1.0,3.0,89,-99.99,,,-99.99,,2013-03-09 13:02:00,
2013-03-09 05:11:00,26.0,21.0,-100.00,NNE,20,1.0,4.0,82,-99.99,,,-99.99,,2013-03-09 13:11:00,
2013-03-09 05:21:00,27.0,20.0,-100.00,NNE,17,3.0,10.0,73,-99.99,,,-99.99,,2013-03-09 13:21:00,
2013-03-09 05:31:00,28.0,20.0,-100.00,NNE,23,4.0,8.0,72,-99.99,,,-99.99,,2013-03-09 13:31:00,
2013-03-09 05:42:00,28.0,20.0,-100.00,NNE,23,4.0,8.0,72,-99.99,,,-99.99,,2013-03-09 13:42:00,
2013-03-09 05:52:00,27.0,21.0,-100.00,NNE,18,2.0,7.0,78,-99.99,,,-99.99,,2013-03-09 13:52:00,
2013-03-09 06:01:00,27.0,21.0,-100.00,North,6,2.0,6.0,78,-99.99,,,-99.99,,2013-03-09 14:01:00,
2013-03-09 06:11:00,26.0,20.0,-100.00,North,8,2.0,6.0,79,-99.99,,,-99.99,,2013-03-09 14:11:00,
2013-03-09 06:21:00,25.0,20.0,-100.00,NNE,24,2.0,7.0,80,-99.99,,,-99.99,,2013-03-09 14:21:00,
2013-03-09 06:31:00,25.0,20.0,-100.00,NNE,24,2.0,7.0,80,-99.99,,,-99.99,,2013-03-09 14:31:00,
2013-03-09 06:41:00,25.0,20.0,-100.00,NNE,25,2.0,6.0,81,-99.99,,,-99.99,,2013-03-09 14:41:00,
2013-03-09 06:52:00,24.0,20.0,-100.00,NE,38,2.0,5.0,83,-99.99,,,-99.99,,2013-03-09 14:52:00,
2013-03-09 07:01:00,24.0,19.0,-100.00,NE,34,2.0,4.0,83,-99.99,,,-99.99,,2013-03-09 15:01:00,
2013-03-09 07:11:00,23.0,19.0,-100.00,NNE,27,3.0,5.0,84,-99.99,,,-99.99,,2013-03-09 15:11:00,
2013-03-09 07:22:00,23.0,19.0,-100.00,NNE,31,3.0,4.0,84,-99.99,,,-99.99,,2013-03-09 15:22:00,
2013-03-09 07:31:00,23.0,19.0,-100.00,NNE,31,3.0,4.0,84,-99.99,,,-99.99,,2013-03-09 15:31:00,
2013-03-09 07:42:00,23.0,19.0,-100.00,NNE,27,1.0,3.0,84,-99.99,,,-99.99,,2013-03-09 15:42:00,
2013-03-09 07:52:00,25.0,19.0,-100.00,ENE,71,1.0,3.0,79,-99.99,,,-99.99,,2013-03-09 15:52:00,
2013-03-09 08:01:00,25.0,19.0,-100.00,ENE,66,2.0,3.0,77,-99.99,,,-99.99,,2013-03-09 16:01:00,
2013-03-09 08:11:00,26.0,19.0,-100.00,North,350,1.0,4.0,73,-99.99,,,-99.99,,2013-03-09 16:11:00,
2013-03-09 08:21:00,29.0,18.0,-100.00,NW,306,4.0,9.0,62,-99.99,,,-99.99,,2013-03-09 16:21:00,
2013-03-09 08:31:00,29.0,18.0,-100.00,NW,306,4.0,9.0,62,-99.99,,,-99.99,,2013-03-09 16:31:00,
2013-03-09 08:41:00,31.0,16.0,-100.00,NE,47,2.0,6.0,54,-99.99,,,-99.99,,2013-03-09 16:41:00,
2013-03-09 08:51:00,31.0,16.0,-100.00,NE,47,2.0,6.0,54,-99.99,,,-99.99,,2013-03-09 16:51:00,
2013-03-09 09:01:00,31.0,16.0,-100.00,WSW,244,2.0,11.0,54,-99.99,,,-99.99,,2013-03-09 17:01:00,
2013-03-09 09:11:00,32.0,16.0,-100.00,North,4,2.0,11.0,51,-99.99,,,-99.99,,2013-03-09 17:11:00,
2013-03-09 09:22:00,32.0,17.0,-100.00,NNE,13,5.0,13.0,53,-99.99,,,-99.99,,2013-03-09 17:22:00,
2013-03-09 09:32:00,32.0,17.0,-100.00,NNE,13,5.0,13.0,53,-99.99,,,-99.99,,2013-03-09 17:32:00,
2013-03-09 09:42:00,33.0,17.0,-100.00,NNW,346,5.0,12.0,51,-99.99,,,-99.99,,2013-03-09 17:42:00,
2013-03-09 09:52:00,33.0,15.0,-100.00,NNE,21,5.0,17.0,48,-99.99,,,-99.99,,2013-03-09 17:52:00,
2013-03-09 10:01:00,33.0,16.0,-100.00,NNE,21,6.0,17.0,49,-99.99,,,-99.99,,2013-03-09 18:01:00,
2013-03-09 10:11:00,33.0,16.0,-100.00,NNE,24,7.0,20.0,50,-99.99,,,-99.99,,2013-03-09 18:11:00,
2013-03-09 10:21:00,34.0,16.0,-100.00,NE,49,5.0,17.0,48,-99.99,,,-99.99,,2013-03-09 18:21:00,
2013-03-09 10:31:00,34.0,16.0,-100.00,NE,49,5.0,17.0,48,-99.99,,,-99.99,,2013-03-09 18:31:00,
2013-03-09 10:42:00,34.0,15.0,-100.00,NNE,23,6.0,15.0,45,-99.99,,,-99.99,,2013-03-09 18:42:00,
2013-03-09 10:52:00,34.0,14.0,-100.00,NE,38,4.0,11.0,44,-99.99,,,-99.99,,2013-03-09 18:52:00,
2013-03-09 11:01:00,35.0,15.0,-100.00,NE,40,4.0,12.0,44,-99.99,,,-99.99,,2013-03-09 19:01:00,
2013-03-09 11:11:00,35.0,13.0,-100.00,NNE,27,6.0,15.0,40,-99.99,,,-99.99,,2013-03-09 19:11:00,
2013-03-09 11:22:00,35.0,13.0,-100.00,North,1,7.0,15.0,40,-99.99,,,-99.99,,2013-03-09 19:22:00,
2013-03-09 11:32:00,35.0,13.0,-100.00,North,1,7.0,15.0,40,-99.99,,,-99.99,,2013-03-09 19:32:00,
2013-03-09 11:42:00,35.0,12.0,-100.00,NE,38,6.0,20.0,38,-99.99,,,-99.99,,2013-03-09 19:42:00,
2013-03-09 11:51:00,36.0,12.0,-100.00,NNE,31,7.0,17.0,37,-99.99,,,-99.99,,2013-03-09 19:51:00,
2013-03-09 12:01:00,37.0,17.0,-100.00,North,7,7.0,18.0,44,-99.99,,,-99.99,,2013-03-09 20:01:00,
2013-03-09 12:11:00,37.0,17.0,-100.00,North,7,7.0,18.0,44,-99.99,,,-99.99,,2013-03-09 20:11:00,
2013-03-09 12:21:00,37.0,14.0,-100.00,North,6,6.0,16.0,38,-99.99,,,-99.99,,2013-03-09 20:21:00,
2013-03-09 12:31:00,37.0,13.0,-100.00,North,8,5.0,19.0,37,-99.99,,,-99.99,,2013-03-09 20:31:00,
2013-03-09 12:42:00,37.0,14.0,-100.00,North,6,6.0,19.0,38,-99.99,,,-99.99,,2013-03-09 20:42:00,
2013-03-09 12:52:00,39.0,13.0,-100.00,North,1,4.0,14.0,34,-99.99,,,-99.99,,2013-03-09 20:52:00,
2013-03-09 13:01:00,39.0,12.0,-100.00,NNE,31,5.0,13.0,33,-99.99,,,-99.99,,2013-03-09 21:01:00,
2013-03-09 13:11:00,39.0,12.0,-100.00,NNE,31,5.0,13.0,33,-99.99,,,-99.99,,2013-03-09 21:11:00,
2013-03-09 13:21:00,39.0,7.0,-100.00,North,6,7.0,16.0,26,-99.99,,,-99.99,,2013-03-09 21:21:00,
2013-03-09 13:31:00,41.0,11.0,-100.00,North,350,5.0,17.0,29,-99.99,,,-99.99,,2013-03-09 21:31:00,
2013-03-09 13:42:00,41.0,8.0,-100.00,North,350,5.0,17.0,25,-99.99,,,-99.99,,2013-03-09 21:42:00,
2013-03-09 13:52:00,40.0,8.0,-100.00,North,357,7.0,16.0,26,-99.99,,,-99.99,,2013-03-09 21:52:00,
2013-03-09 14:01:00,41.0,7.0,-100.00,NNW,342,6.0,16.0,24,-99.99,,,-99.99,,2013-03-09 22:01:00,
2013-03-09 14:11:00,41.0,7.0,-100.00,NNW,342,6.0,16.0,24,-99.99,,,-99.99,,2013-03-09 22:11:00,
2013-03-09 14:21:00,41.0,5.0,-100.00,North,349,5.0,20.0,22,-99.99,,,-99.99,,2013-03-09 22:21:00,
2013-03-09 14:32:00,41.0,5.0,-100.00,North,349,5.0,20.0,22,-99.99,,,-99.99,,2013-03-09 22:32:00,
2013-03-09 14:41:00,42.0,5.0,-100.00,North,360,5.0,15.0,21,-99.99,,,-99.99,,2013-03-09 22:41:00,
2013-03-09 14:52:00,42.0,5.0,-100.00,NE,40,6.0,17.0,21,-99.99,,,-99.99,,2013-03-09 22:52:00,
2013-03-09 15:01:00,43.0,6.0,-100.00,NE,34,5.0,15.0,21,-99.99,,,-99.99,,2013-03-09 23:01:00,
2013-03-09 15:11:00,43.0,6.0,-100.00,NE,34,5.0,15.0,21,-99.99,,,-99.99,,2013-03-09 23:11:00,
2013-03-09 15:21:00,42.0,2.0,-100.00,NE,34,7.0,19.0,18,-99.99,,,-99.99,,2013-03-09 23:21:00,
2013-03-09 15:32:00,42.0,2.0,-100.00,NE,34,7.0,19.0,18,-99.99,,,-99.99,,2013-03-09 23:32:00,
2013-03-09 15:41:00,42.0,3.0,-100.00,NNE,24,7.0,18.0,19,-99.99,,,-99.99,,2013-03-09 23:41:00,
2013-03-09 15:52:00,42.0,4.0,-100.00,NNE,31,7.0,17.0,20,-99.99,,,-99.99,,2013-03-09 23:52:00,
2013-03-09 16:01:00,42.0,4.0,-100.00,NNE,18,8.0,17.0,20,-99.99,,,-99.99,,2013-03-10 00:01:00,
2013-03-09 16:11:00,42.0,4.0,-100.00,NNE,18,8.0,17.0,20,-99.99,,,-99.99,,2013-03-10 00:11:00,
2013-03-09 16:22:00,42.0,4.0,-100.00,NNE,27,7.0,14.0,20,-99.99,,,-99.99,,2013-03-10 00:22:00,
2013-03-09 16:31:00,43.0,5.0,-100.00,NNE,30,5.0,15.0,20,-99.99,,,-99.99,,2013-03-10 00:31:00,
2013-03-09 16:42:00,43.0,5.0,-100.00,NNE,30,5.0,15.0,20,-99.99,,,-99.99,,2013-03-10 00:42:00,
2013-03-09 16:52:00,43.0,6.0,-100.00,NNE,25,4.0,13.0,21,-99.99,,,-99.99,,2013-03-10 00:52:00,
2013-03-09 17:01:00,42.0,6.0,-100.00,NNE,30,5.0,14.0,22,-99.99,,,-99.99,,2013-03-10 01:01:00,
2013-03-09 17:11:00,42.0,4.0,-100.00,NNE,31,5.0,12.0,20,-99.99,,,-99.99,,2013-03-10 01:11:00,
2013-03-09 17:21:00,43.0,6.0,-100.00,NNE,27,4.0,12.0,21,-99.99,,,-99.99,,2013-03-10 01:21:00,
2013-03-09 17:31:00,43.0,6.0,-100.00,NNE,27,4.0,12.0,21,-99.99,,,-99.99,,2013-03-10 01:31:00,
2013-03-09 17:41:00,41.0,3.0,-100.00,North,6,6.0,15.0,20,-99.99,,,-99.99,,2013-03-10 01:41:00,
2013-03-09 17:52:00,41.0,3.0,-100.00,North,6,6.0,15.0,20,-99.99,,,-99.99,,2013-03-10 01:52:00,
2013-03-09 18:01:00,41.0,3.0,-100.00,North,6,6.0,15.0,20,-99.99,,,-99.99,,2013-03-10 02:01:00,
2013-03-09 18:11:00,40.0,6.0,-100.00,North,8,4.0,12.0,24,-99.99,,,-99.99,,2013-03-10 02:11:00,
2013-03-09 18:22:00,40.0,6.0,-100.00,North,10,4.0,10.0,24,-99.99,,,-99.99,,2013-03-10 02:22:00,
2013-03-09 18:31:00,39.0,6.0,-100.00,NNE,23,4.0,12.0,25,-99.99,,,-99.99,,2013-03-10 02:31:00,
2013-03-09 18:41:00,37.0,11.0,-100.00,North,10,3.0,7.0,33,-99.99,,,-99.99,,2013-03-10 02:41:00,
2013-03-09 18:52:00,37.0,11.0,-100.00,North,10,3.0,7.0,33,-99.99,,,-99.99,,2013-03-10 02:52:00,
2013-03-09 19:01:00,35.0,12.0,-100.00,NNW,343,2.0,4.0,38,-99.99,,,-99.99,,2013-03-10 03:01:00,
2013-03-09 19:11:00,35.0,12.0,-100.00,NNW,343,2.0,4.0,38,-99.99,,,-99.99,,2013-03-10 03:11:00,
2013-03-09 19:22:00,32.0,14.0,-100.00,North,3,3.0,5.0,46,-99.99,,,-99.99,,2013-03-10 03:22:00,
2013-03-09 19:31:00,31.0,17.0,-100.00,North,7,3.0,7.0,55,-99.99,,,-99.99,,2013-03-10 03:31:00,
2013-03-09 19:42:00,31.0,17.0,-100.00,North,7,3.0,7.0,55,-99.99,,,-99.99,,2013-03-10 03:42:00,
2013-03-09 19:52:00,30.0,14.0,-100.00,NNE,14,4.0,6.0,51,-99.99,,,-99.99,,2013-03-10 03:52:00,
2013-03-09 20:01:00,30.0,15.0,-100.00,NNE,30,4.0,6.0,53,-99.99,,,-99.99,,2013-03-10 04:01:00,
2013-03-09 20:11:00,30.0,15.0,-100.00,NNE,30,4.0,6.0,53,-99.99,,,-99.99,,2013-03-10 04:11:00,
2013-03-09 20:21:00,30.0,15.0,-100.00,NNE,27,3.0,6.0,52,-99.99,,,-99.99,,2013-03-10 04:21:00,
2013-03-09 20:31:00,29.0,14.0,-100.00,NNE,21,4.0,5.0,54,-99.99,,,-99.99,,2013-03-10 04:31:00,
2013-03-09 20:41:00,29.0,14.0,-100.00,NNE,21,4.0,5.0,54,-99.99,,,-99.99,,2013-03-10 04:41:00,
2013-03-09 20:51:00,30.0,14.0,-100.00,North,11,4.0,7.0,50,-99.99,,,-99.99,,2013-03-10 04:51:00,
2013-03-09 21:01:00,31.0,12.0,-100.00,North,354,3.0,7.0,45,-99.99,,,-99.99,,2013-03-10 05:01:00,
2013-03-09 21:11:00,31.0,12.0,-100.00,North,354,3.0,7.0,45,-99.99,,,-99.99,,2013-03-10 05:11:00,
2013-03-09 21:21:00,30.0,15.0,-100.00,NE,40,3.0,7.0,53,-99.99,,,-99.99,,2013-03-10 05:21:00,
2013-03-09 21:31:00,31.0,13.0,-100.00,NNE,14,3.0,5.0,46,-99.99,,,-99.99,,2013-03-10 05:31:00,
2013-03-09 21:42:00,32.0,7.0,-100.00,NNW,337,3.0,6.0,34,-99.99,,,-99.99,,2013-03-10 05:42:00,
2013-03-09 21:52:00,32.0,7.0,-100.00,NNW,332,3.0,9.0,34,-99.99,,,-99.99,,2013-03-10 05:52:00,
2013-03-09 22:01:00,34.0,6.0,-100.00,NW,322,6.0,15.0,30,-99.99,,,-99.99,,2013-03-10 06:01:00,
2013-03-09 22:11:00,34.0,6.0,-100.00,NW,322,6.0,15.0,30,-99.99,,,-99.99,,2013-03-10 06:11:00,
2013-03-09 22:21:00,34.0,6.0,-100.00,NW,305,5.0,12.0,30,-99.99,,,-99.99,,2013-03-10 06:21:00,
2013-03-09 22:32:00,34.0,6.0,-100.00,WNW,298,4.0,10.0,30,-99.99,,,-99.99,,2013-03-10 06:32:00,
2013-03-09 22:41:00,34.0,6.0,-100.00,WNW,298,4.0,10.0,30,-99.99,,,-99.99,,2013-03-10 06:41:00,
2013-03-09 22:51:00,34.0,6.0,-100.00,WNW,298,4.0,10.0,30,-99.99,,,-99.99,,2013-03-10 06:51:00,